createdAt,value
2018-01-27T00:00:18.558Z,18.63
2018-01-27T00:02:44.730Z,18.62
2018-01-27T00:05:10.918Z,18.60
2018-01-27T00:07:37.141Z,18.61
2018-01-27T00:10:03.383Z,18.60
2018-01-27T00:12:29.631Z,18.62
2018-01-27T00:14:55.914Z,18.61
2018-01-27T00:17:22.097Z,18.61
2018-01-27T00:19:48.359Z,18.61
2018-01-27T00:22:14.607Z,18.60
2018-01-27T00:24:40.797Z,18.61
2018-01-27T00:27:07.041Z,18.62
2018-01-27T00:29:33.229Z,18.59
2018-01-27T00:31:59.390Z,18.58
2018-01-27T00:34:25.708Z,18.61
2018-01-27T00:36:51.906Z,18.59
2018-01-27T00:39:18.106Z,18.55
2018-01-27T00:41:44.694Z,18.56
2018-01-27T00:44:10.886Z,18.58
2018-01-27T00:46:37.306Z,18.59
2018-01-27T00:49:03.535Z,18.60
2018-01-27T00:51:29.708Z,18.58
2018-01-27T00:53:55.896Z,18.59
2018-01-27T00:56:22.398Z,18.58
2018-01-27T00:58:48.955Z,18.59
2018-01-27T01:01:15.144Z,18.61
2018-01-27T01:03:41.901Z,18.57
2018-01-27T01:06:08.106Z,18.57
2018-01-27T01:08:34.318Z,18.58
2018-01-27T01:11:00.554Z,18.57
2018-01-27T01:13:26.798Z,18.57
2018-01-27T01:15:53.014Z,18.57
2018-01-27T01:18:19.574Z,18.56
2018-01-27T01:20:45.788Z,18.58
2018-01-27T01:23:11.991Z,18.57
2018-01-27T01:25:38.207Z,18.59
2018-01-27T01:28:04.383Z,18.59
2018-01-27T01:30:30.673Z,18.57
2018-01-27T01:32:56.889Z,18.58
2018-01-27T01:35:23.402Z,18.57
2018-01-27T01:37:50.010Z,18.59
2018-01-27T01:40:16.201Z,18.58
2018-01-27T01:42:48.381Z,18.58
2018-01-27T01:45:14.641Z,18.58
2018-01-27T01:47:40.833Z,18.56
2018-01-27T01:50:07.117Z,18.57
2018-01-27T01:52:33.307Z,18.57
2018-01-27T01:54:59.488Z,18.58
2018-01-27T01:57:25.754Z,18.57
2018-01-27T01:59:51.954Z,18.55
2018-01-27T02:02:18.154Z,18.56
2018-01-27T02:04:44.359Z,18.58
2018-01-27T02:07:10.555Z,18.58
2018-01-27T02:09:36.778Z,18.60
2018-01-27T02:12:02.964Z,18.58
2018-01-27T02:14:29.170Z,18.60
2018-01-27T02:16:55.414Z,18.57
2018-01-27T02:19:21.694Z,18.57
2018-01-27T02:21:48.185Z,18.58
2018-01-27T02:24:15.644Z,18.56
2018-01-27T02:26:41.862Z,18.54
2018-01-27T02:29:08.416Z,18.55
2018-01-27T02:31:34.678Z,18.56
2018-01-27T02:34:00.894Z,18.57
2018-01-27T02:36:27.057Z,18.56
2018-01-27T02:38:53.261Z,18.58
2018-01-27T02:41:19.477Z,18.57
2018-01-27T02:43:45.735Z,18.56
2018-01-27T02:46:11.949Z,18.56
2018-01-27T02:48:38.184Z,18.55
2018-01-27T02:51:04.459Z,18.56
2018-01-27T02:53:30.655Z,18.57
2018-01-27T02:55:56.872Z,18.58
2018-01-27T02:58:23.100Z,18.58
2018-01-27T03:00:49.286Z,18.57
2018-01-27T03:03:15.502Z,18.57
2018-01-27T03:05:41.741Z,18.57
2018-01-27T03:08:07.934Z,18.56
2018-01-27T03:10:34.098Z,18.56
2018-01-27T03:13:00.314Z,18.55
2018-01-27T03:15:26.720Z,18.52
2018-01-27T03:17:52.897Z,18.53
2018-01-27T03:20:19.422Z,18.52
2018-01-27T03:22:45.588Z,18.54
2018-01-27T03:25:11.803Z,18.54
2018-01-27T03:27:37.982Z,18.53
2018-01-27T03:30:04.211Z,18.52
2018-01-27T03:32:30.689Z,18.54
2018-01-27T03:34:56.911Z,18.52
2018-01-27T03:37:23.086Z,18.53
2018-01-27T03:39:49.359Z,18.53
2018-01-27T03:42:15.555Z,18.52
2018-01-27T03:44:41.757Z,18.53
2018-01-27T03:47:08.065Z,18.55
2018-01-27T03:49:34.253Z,18.55
2018-01-27T03:52:00.777Z,18.55
2018-01-27T03:54:26.990Z,18.56
2018-01-27T03:56:53.214Z,18.56
2018-01-27T03:59:19.466Z,18.56
2018-01-27T04:01:45.892Z,18.57
2018-01-27T04:04:12.075Z,18.56
2018-01-27T04:06:38.660Z,18.56
2018-01-27T04:09:04.838Z,18.56
2018-01-27T04:11:31.223Z,18.58
2018-01-27T04:13:57.753Z,18.57
2018-01-27T04:16:23.930Z,18.57
2018-01-27T04:18:50.462Z,18.56
2018-01-27T04:21:16.642Z,18.55
2018-01-27T04:23:42.810Z,18.55
2018-01-27T04:26:09.074Z,18.53
2018-01-27T04:28:35.259Z,18.54
2018-01-27T04:31:01.479Z,18.54
2018-01-27T04:33:28.073Z,18.54
2018-01-27T04:35:54.258Z,18.54
2018-01-27T04:38:20.429Z,18.56
2018-01-27T04:40:46.673Z,18.56
2018-01-27T04:43:12.874Z,18.56
2018-01-27T04:45:39.101Z,18.58
2018-01-27T04:48:05.330Z,18.58
2018-01-27T04:50:31.542Z,18.58
2018-01-27T04:52:57.968Z,18.56
2018-01-27T04:55:24.196Z,18.57
2018-01-27T04:57:50.403Z,18.57
2018-01-27T05:00:16.647Z,18.56
2018-01-27T05:02:42.822Z,18.57
2018-01-27T05:05:09.286Z,18.57
2018-01-27T05:07:35.542Z,18.57
2018-01-27T05:10:01.718Z,18.57
2018-01-27T05:12:27.924Z,18.58
2018-01-27T05:14:54.143Z,18.56
2018-01-27T05:17:20.708Z,18.56
2018-01-27T05:19:46.930Z,18.58
2018-01-27T05:22:13.119Z,18.56
2018-01-27T05:24:39.337Z,18.56
2018-01-27T05:27:05.573Z,18.55
2018-01-27T05:29:32.031Z,18.56
2018-01-27T05:31:58.209Z,18.56
2018-01-27T05:34:24.508Z,18.58
2018-01-27T05:36:50.714Z,18.62
2018-01-27T05:39:16.978Z,18.65
2018-01-27T05:41:43.186Z,18.64
2018-01-27T05:44:09.358Z,18.64
2018-01-27T05:46:35.626Z,18.65
2018-01-27T05:49:01.838Z,18.66
2018-01-27T05:51:28.024Z,18.65
2018-01-27T05:53:54.540Z,18.64
2018-01-27T05:56:20.711Z,18.66
2018-01-27T05:58:46.943Z,18.64
2018-01-27T06:01:13.163Z,18.64
2018-01-27T06:03:39.350Z,18.64
2018-01-27T06:06:05.562Z,18.63
2018-01-27T06:08:32.019Z,18.61
2018-01-27T06:10:58.550Z,18.62
2018-01-27T06:13:25.140Z,18.58
2018-01-27T06:15:51.380Z,18.58
2018-01-27T06:18:17.614Z,18.56
2018-01-27T06:20:43.903Z,18.56
2018-01-27T06:23:10.435Z,18.57
2018-01-27T06:25:36.657Z,18.58
2018-01-27T06:28:03.163Z,18.58
2018-01-27T06:30:29.782Z,18.57
2018-01-27T06:32:55.980Z,18.59
2018-01-27T06:35:22.165Z,18.58
2018-01-27T06:37:48.412Z,18.60
2018-01-27T06:40:14.627Z,18.61
2018-01-27T06:42:40.807Z,18.62
2018-01-27T06:45:07.008Z,18.63
2018-01-27T06:47:33.186Z,18.64
2018-01-27T06:49:59.397Z,18.63
2018-01-27T06:52:25.965Z,18.63
2018-01-27T06:54:52.532Z,18.62
2018-01-27T06:57:18.697Z,18.61
2018-01-27T06:59:44.897Z,18.63
2018-01-27T07:02:11.129Z,18.63
2018-01-27T07:04:37.369Z,18.63
2018-01-27T07:07:03.597Z,18.64
2018-01-27T07:09:29.819Z,18.62
2018-01-27T07:11:55.992Z,18.63
2018-01-27T07:14:22.164Z,18.59
2018-01-27T07:16:48.378Z,18.59
2018-01-27T07:19:14.799Z,18.59
2018-01-27T07:21:41.303Z,18.59
2018-01-27T07:24:07.854Z,18.59
2018-01-27T07:26:34.055Z,18.57
2018-01-27T07:29:00.340Z,18.58
2018-01-27T07:31:26.549Z,18.58
2018-01-27T07:33:52.731Z,18.58
2018-01-27T07:36:19.009Z,18.61
2018-01-27T07:38:45.531Z,18.62
2018-01-27T07:41:11.722Z,18.63
2018-01-27T07:43:37.973Z,18.62
2018-01-27T07:46:04.201Z,18.62
2018-01-27T07:48:30.388Z,18.63
2018-01-27T07:50:56.643Z,18.62
2018-01-27T07:53:22.893Z,18.63
2018-01-27T07:58:20.929Z,18.63
2018-01-27T08:00:47.145Z,18.66
2018-01-27T08:03:13.357Z,18.67
2018-01-27T08:05:39.599Z,18.66
2018-01-27T08:08:05.838Z,18.66
2018-01-27T08:10:32.067Z,18.65
2018-01-27T08:12:58.290Z,18.64
2018-01-27T08:15:24.488Z,18.64
2018-01-27T08:17:50.762Z,18.64
2018-01-27T08:20:17.190Z,18.64
2018-01-27T08:22:43.383Z,18.63
2018-01-27T08:25:09.585Z,18.64
2018-01-27T08:27:35.764Z,18.64
2018-01-27T08:30:02.014Z,18.64
2018-01-27T08:32:28.178Z,18.64
2018-01-27T08:34:54.352Z,18.63
2018-01-27T08:37:20.581Z,18.65
2018-01-27T08:39:46.783Z,18.66
2018-01-27T08:42:13.341Z,18.66
2018-01-27T08:44:39.549Z,18.66
2018-01-27T08:47:05.750Z,18.67
2018-01-27T08:49:31.960Z,18.67
2018-01-27T08:51:58.138Z,18.68
2018-01-27T08:54:24.598Z,18.68
2018-01-27T08:56:57.008Z,18.70
2018-01-27T08:59:23.194Z,18.70
2018-01-27T09:01:49.670Z,18.71
2018-01-27T09:04:15.989Z,18.72
2018-01-27T09:06:42.202Z,18.72
2018-01-27T09:09:08.435Z,18.72
2018-01-27T09:11:34.892Z,18.71
2018-01-27T09:14:01.188Z,18.70
2018-01-27T09:16:27.419Z,18.72
2018-01-27T09:18:53.596Z,18.71
2018-01-27T09:21:19.808Z,18.71
2018-01-27T09:23:46.061Z,18.71
2018-01-27T09:26:12.239Z,18.70
2018-01-27T09:28:38.540Z,18.70
2018-01-27T09:31:04.742Z,18.71
2018-01-27T09:33:30.968Z,18.71
2018-01-27T09:35:57.146Z,18.72
2018-01-27T09:38:23.341Z,18.72
2018-01-27T09:40:49.568Z,18.73
2018-01-27T09:43:15.746Z,18.74
2018-01-27T09:45:41.937Z,18.75
2018-01-27T09:48:08.161Z,18.77
2018-01-27T09:50:34.381Z,18.79
2018-01-27T09:53:00.550Z,18.78
2018-01-27T09:55:27.106Z,18.81
2018-01-27T09:57:53.349Z,18.83
2018-01-27T10:00:19.560Z,18.84
2018-01-27T10:02:45.782Z,18.85
2018-01-27T10:05:12.022Z,18.86
2018-01-27T10:07:38.205Z,18.87
2018-01-27T10:10:04.430Z,18.88
2018-01-27T10:12:31.004Z,18.89
2018-01-27T10:14:57.252Z,18.90
2018-01-27T10:17:23.458Z,18.91
2018-01-27T10:19:49.922Z,18.91
2018-01-27T10:22:16.200Z,18.93
2018-01-27T10:24:42.391Z,18.98
2018-01-27T10:27:08.987Z,18.99
2018-01-27T10:29:35.335Z,19.01
2018-01-27T10:32:01.591Z,19.03
2018-01-27T10:34:27.782Z,19.02
2018-01-27T10:36:54.313Z,19.02
2018-01-27T10:39:20.507Z,19.04
2018-01-27T10:41:47.016Z,19.04
2018-01-27T10:44:13.250Z,19.05
2018-01-27T10:46:39.428Z,19.06
2018-01-27T10:49:05.698Z,19.07
2018-01-27T10:51:31.922Z,19.09
2018-01-27T10:53:58.528Z,19.11
2018-01-27T10:56:24.946Z,19.13
2018-01-27T10:58:51.537Z,19.15
2018-01-27T11:01:17.753Z,19.15
2018-01-27T11:03:43.942Z,19.13
2018-01-27T11:06:10.170Z,19.08
2018-01-27T11:08:36.348Z,19.04
2018-01-27T11:11:02.586Z,19.02
2018-01-27T11:13:29.164Z,19.05
2018-01-27T11:15:55.386Z,19.05
2018-01-27T11:18:21.597Z,19.05
2018-01-27T11:20:47.837Z,19.06
2018-01-27T11:23:14.015Z,19.05
2018-01-27T11:25:40.514Z,19.01
2018-01-27T11:28:06.723Z,18.99
2018-01-27T11:30:33.278Z,18.96
2018-01-27T11:32:59.475Z,18.97
2018-01-27T11:35:25.756Z,18.97
2018-01-27T11:37:51.963Z,18.97
2018-01-27T11:40:18.148Z,18.95
2018-01-27T11:42:44.397Z,18.93
2018-01-27T11:45:10.580Z,18.93
2018-01-27T11:47:36.788Z,18.90
2018-01-27T11:50:03.410Z,18.87
2018-01-27T11:52:29.621Z,18.86
2018-01-27T11:54:55.818Z,18.85
2018-01-27T11:57:22.056Z,18.85
2018-01-27T11:59:48.498Z,18.84
2018-01-27T12:02:14.780Z,18.86
2018-01-27T12:04:41.082Z,18.85
2018-01-27T12:07:07.298Z,18.83
2018-01-27T12:09:33.574Z,18.79
2018-01-27T12:12:00.070Z,18.78
2018-01-27T12:14:26.237Z,18.81
2018-01-27T12:16:52.556Z,18.80
2018-01-27T12:19:18.740Z,18.78
2018-01-27T12:21:44.913Z,18.79
2018-01-27T12:24:11.141Z,18.79
2018-01-27T12:26:37.736Z,18.80
2018-01-27T12:29:04.285Z,18.79
2018-01-27T12:31:30.819Z,18.77
2018-01-27T12:33:57.662Z,18.76
2018-01-27T12:36:23.883Z,18.76
2018-01-27T12:38:50.079Z,18.78
2018-01-27T12:41:16.362Z,18.78
2018-01-27T12:43:42.555Z,18.77
2018-01-27T12:46:08.754Z,18.77
2018-01-27T12:48:35.010Z,18.78
2018-01-27T12:51:01.468Z,18.80
2018-01-27T12:53:27.636Z,18.81
2018-01-27T12:55:54.172Z,18.84
2018-01-27T12:58:20.340Z,18.85
2018-01-27T13:00:46.570Z,18.84
2018-01-27T13:03:12.799Z,18.82
2018-01-27T13:05:38.995Z,18.82
2018-01-27T13:08:05.191Z,18.82
2018-01-27T13:10:31.391Z,18.81
2018-01-27T13:12:57.578Z,18.81
2018-01-27T13:15:23.842Z,18.82
2018-01-27T13:17:50.034Z,18.82
2018-01-27T13:20:16.229Z,18.84
2018-01-27T13:22:42.736Z,18.82
2018-01-27T13:25:08.928Z,18.82
2018-01-27T13:27:35.111Z,18.84
2018-01-27T13:30:01.334Z,18.84
2018-01-27T13:32:27.858Z,18.83
2018-01-27T13:34:54.392Z,18.82
2018-01-27T13:37:20.631Z,18.80
2018-01-27T13:39:46.855Z,18.81
2018-01-27T13:42:13.042Z,18.81
2018-01-27T13:44:39.647Z,18.81
2018-01-27T13:47:05.841Z,18.81
2018-01-27T13:49:32.271Z,18.80
2018-01-27T13:51:58.809Z,18.78
2018-01-27T13:54:25.342Z,18.77
2018-01-27T13:56:51.517Z,18.75
2018-01-27T13:59:17.763Z,18.77
2018-01-27T14:01:43.946Z,18.76
2018-01-27T14:04:10.138Z,18.74
2018-01-27T14:06:36.368Z,18.75
2018-01-27T14:09:02.597Z,18.73
2018-01-27T14:11:28.790Z,18.72
2018-01-27T14:13:54.999Z,18.73
2018-01-27T14:16:21.495Z,18.73
2018-01-27T14:18:47.719Z,18.74
2018-01-27T14:21:13.908Z,18.71
2018-01-27T14:23:40.179Z,18.70
2018-01-27T14:26:06.726Z,18.71
2018-01-27T14:28:33.295Z,18.68
2018-01-27T14:30:59.539Z,18.68
2018-01-27T14:33:25.733Z,18.69
2018-01-27T14:35:51.959Z,18.69
2018-01-27T14:38:18.189Z,18.67
2018-01-27T14:40:44.385Z,18.66
2018-01-27T14:43:10.605Z,18.65
2018-01-27T14:45:36.788Z,18.62
2018-01-27T14:48:03.362Z,18.58
2018-01-27T14:50:29.921Z,18.58
2018-01-27T14:52:56.457Z,18.58
2018-01-27T14:55:22.723Z,18.57
2018-01-27T14:57:48.905Z,18.58
2018-01-27T15:00:15.103Z,18.57
2018-01-27T15:02:41.611Z,18.57
2018-01-27T15:05:07.833Z,18.56
2018-01-27T15:07:34.335Z,18.56
2018-01-27T15:10:00.599Z,18.57
2018-01-27T15:12:26.835Z,18.56
2018-01-27T15:14:53.333Z,18.55
2018-01-27T15:17:19.569Z,18.55
2018-01-27T15:19:51.986Z,18.53
2018-01-27T15:22:18.184Z,18.54
2018-01-27T15:24:44.383Z,18.52
2018-01-27T15:27:10.615Z,18.52
2018-01-27T15:29:36.831Z,18.51
2018-01-27T15:32:03.093Z,18.53
2018-01-27T15:34:29.303Z,18.52
2018-01-27T15:36:55.525Z,18.50
2018-01-27T15:39:21.711Z,18.49
2018-01-27T15:41:47.947Z,18.51
2018-01-27T15:44:14.147Z,18.50
2018-01-27T15:46:40.644Z,18.50
2018-01-27T15:49:07.180Z,18.50
2018-01-27T15:51:33.356Z,18.49
2018-01-27T15:53:59.844Z,18.49
2018-01-27T15:56:26.334Z,18.49
2018-01-27T15:58:52.807Z,18.48
2018-01-27T16:01:18.983Z,18.48
2018-01-27T16:03:45.175Z,18.49
2018-01-27T16:06:11.424Z,18.49
2018-01-27T16:08:38.367Z,18.48
2018-01-27T16:11:04.567Z,18.49
2018-01-27T16:13:30.747Z,18.48
2018-01-27T16:15:56.968Z,18.48
2018-01-27T16:18:23.147Z,18.48
2018-01-27T16:20:49.687Z,18.49
2018-01-27T16:23:15.910Z,18.47
2018-01-27T16:25:42.445Z,18.46
2018-01-27T16:28:08.693Z,18.46
2018-01-27T16:30:34.965Z,18.45
2018-01-27T16:33:01.213Z,18.45
2018-01-27T16:35:27.497Z,18.46
2018-01-27T16:37:53.746Z,18.46
2018-01-27T16:40:20.330Z,18.45
2018-01-27T16:42:46.905Z,18.43
2018-01-27T16:45:13.088Z,18.43
2018-01-27T16:47:39.295Z,18.43
2018-01-27T16:50:05.836Z,18.42
2018-01-27T16:52:32.022Z,18.43
2018-01-27T16:54:58.193Z,18.43
2018-01-27T16:57:24.405Z,18.46
2018-01-27T16:59:50.641Z,18.47
2018-01-27T17:02:16.898Z,18.47
2018-01-27T17:04:43.125Z,18.47
2018-01-27T17:07:09.597Z,18.45
2018-01-27T17:09:36.391Z,18.45
2018-01-27T17:12:02.698Z,18.42
2018-01-27T17:14:28.877Z,18.38
2018-01-27T17:16:55.133Z,18.39
2018-01-27T17:19:21.353Z,18.38
2018-01-27T17:21:47.547Z,18.38
2018-01-27T17:24:13.717Z,18.37
2018-01-27T17:26:39.956Z,18.37
2018-01-27T17:29:06.430Z,18.35
2018-01-27T17:31:32.625Z,18.38
2018-01-27T17:33:58.894Z,18.37
2018-01-27T17:36:25.079Z,18.37
2018-01-27T17:38:51.545Z,18.36
2018-01-27T17:41:18.166Z,18.37
2018-01-27T17:43:44.366Z,18.39
2018-01-27T17:46:10.544Z,18.37
2018-01-27T17:48:36.779Z,18.36
2018-01-27T17:51:03.051Z,18.35
2018-01-27T17:53:29.308Z,18.35
2018-01-27T17:55:55.857Z,18.34
2018-01-27T17:58:22.058Z,18.34
2018-01-27T18:00:48.305Z,18.33
2018-01-27T18:03:14.556Z,18.32
2018-01-27T18:05:40.767Z,18.32
2018-01-27T18:08:07.310Z,18.30
2018-01-27T18:10:33.888Z,18.29
2018-01-27T18:13:00.146Z,18.30
2018-01-27T18:15:26.601Z,18.31
2018-01-27T18:17:52.889Z,18.31
2018-01-27T18:20:19.092Z,18.30
2018-01-27T18:22:45.266Z,18.30
2018-01-27T18:25:11.590Z,18.30
2018-01-27T18:27:37.790Z,18.31
2018-01-27T18:30:03.995Z,18.32
2018-01-27T18:32:30.305Z,18.34
2018-01-27T18:34:56.596Z,18.36
2018-01-27T18:37:22.780Z,18.35
2018-01-27T18:39:49.289Z,18.36
2018-01-27T18:42:15.534Z,18.34
2018-01-27T18:44:41.746Z,18.36
2018-01-27T18:47:07.956Z,18.37
2018-01-27T18:49:34.458Z,18.40
2018-01-27T18:52:00.641Z,18.37
2018-01-27T18:54:27.177Z,18.38
2018-01-27T18:56:53.711Z,18.38
2018-01-27T18:59:19.900Z,18.36
2018-01-27T19:01:46.130Z,18.36
2018-01-27T19:04:12.599Z,18.36
2018-01-27T19:06:38.772Z,18.37
2018-01-27T19:09:05.337Z,18.36
2018-01-27T19:11:31.516Z,18.35
2018-01-27T19:13:57.676Z,18.36
2018-01-27T19:16:23.904Z,18.34
2018-01-27T19:18:50.089Z,18.33
2018-01-27T19:21:16.267Z,18.33
2018-01-27T19:23:42.833Z,18.33
2018-01-27T19:26:09.005Z,18.32
2018-01-27T19:28:35.492Z,18.32
2018-01-27T19:31:01.709Z,18.27
2018-01-27T19:33:27.945Z,18.27
2018-01-27T19:35:54.267Z,18.29
2018-01-27T19:38:20.453Z,18.30
2018-01-27T19:40:46.638Z,18.32
2018-01-27T19:43:12.925Z,18.33
2018-01-27T19:45:39.111Z,18.34
2018-01-27T19:48:05.634Z,18.31
2018-01-27T19:50:31.916Z,18.32
2018-01-27T19:52:58.096Z,18.33
2018-01-27T19:55:24.332Z,18.33
2018-01-27T19:57:50.733Z,18.34
2018-01-27T20:00:16.925Z,18.31
2018-01-27T20:02:43.161Z,18.32
2018-01-27T20:05:09.358Z,18.33
2018-01-27T20:07:35.598Z,18.35
2018-01-27T20:10:01.815Z,18.32
2018-01-27T20:12:28.080Z,18.30
2018-01-27T20:14:54.318Z,18.32
2018-01-27T20:17:20.521Z,18.33
2018-01-27T20:19:46.802Z,18.32
2018-01-27T20:22:12.983Z,18.30
2018-01-27T20:24:39.205Z,18.29
2018-01-27T20:27:05.451Z,18.31
2018-01-27T20:29:31.675Z,18.31
2018-01-27T20:31:58.139Z,18.32
2018-01-27T20:34:24.675Z,18.33
2018-01-27T20:36:51.190Z,18.32
2018-01-27T20:39:17.385Z,18.34
2018-01-27T20:41:43.983Z,18.34
2018-01-27T20:44:10.193Z,18.36
2018-01-27T20:46:36.408Z,18.34
2018-01-27T20:49:02.722Z,18.34
2018-01-27T20:51:28.982Z,18.34
2018-01-27T20:53:55.180Z,18.33
2018-01-27T20:56:21.653Z,18.35
2018-01-27T20:58:47.938Z,18.30
2018-01-27T21:01:14.223Z,18.29
2018-01-27T21:03:40.433Z,18.27
2018-01-27T21:06:06.622Z,18.27
2018-01-27T21:08:32.855Z,18.25
2018-01-27T21:10:59.053Z,18.25
2018-01-27T21:13:25.242Z,18.25
2018-01-27T21:15:51.515Z,18.24
2018-01-27T21:18:17.696Z,18.25
2018-01-27T21:20:43.942Z,18.19
2018-01-27T21:23:10.156Z,18.18
2018-01-27T21:25:36.358Z,18.19
2018-01-27T21:28:02.627Z,18.17
2018-01-27T21:30:28.807Z,18.16
2018-01-27T21:32:54.982Z,18.15
2018-01-27T21:35:21.204Z,18.15
2018-01-27T21:37:47.398Z,18.12
2018-01-27T21:40:13.636Z,18.10
2018-01-27T21:42:39.838Z,18.06
2018-01-27T21:45:06.011Z,18.05
2018-01-27T21:47:32.235Z,18.05
2018-01-27T21:49:58.424Z,18.03
2018-01-27T21:52:24.627Z,18.03
2018-01-27T21:54:50.840Z,18.06
2018-01-27T21:57:17.094Z,18.05
2018-01-27T21:59:43.278Z,18.04
2018-01-27T22:02:09.495Z,18.02
2018-01-27T22:04:35.708Z,18.01
2018-01-27T22:07:01.888Z,17.99
2018-01-27T22:09:28.050Z,17.97
2018-01-27T22:11:54.323Z,17.97
2018-01-27T22:14:20.540Z,17.98
2018-01-27T22:16:46.718Z,17.95
2018-01-27T22:19:12.941Z,17.94
2018-01-27T22:21:39.155Z,17.96
2018-01-27T22:24:05.371Z,17.94
2018-01-27T22:26:31.585Z,17.93
2018-01-27T22:28:57.736Z,17.93
2018-01-27T22:31:24.021Z,17.93
2018-01-27T22:33:50.217Z,17.94
2018-01-27T22:36:16.530Z,17.95
2018-01-27T22:38:43.068Z,17.93
2018-01-27T22:41:09.569Z,17.93
2018-01-27T22:43:35.738Z,17.91
2018-01-27T22:46:01.959Z,17.93
2018-01-27T22:48:28.190Z,17.88
2018-01-27T22:50:54.369Z,17.88
2018-01-27T22:53:20.617Z,17.88
2018-01-27T22:55:46.853Z,17.90
2018-01-27T22:58:13.061Z,17.92
2018-01-27T23:00:39.373Z,17.95
2018-01-27T23:03:05.587Z,17.95
2018-01-27T23:05:31.793Z,17.90
2018-01-27T23:07:58.063Z,17.90
2018-01-27T23:10:24.505Z,17.89
2018-01-27T23:12:51.150Z,17.88
2018-01-27T23:15:17.394Z,17.86
2018-01-27T23:17:43.906Z,17.88
2018-01-27T23:20:10.205Z,17.86
2018-01-27T23:22:36.470Z,17.85
2018-01-27T23:25:02.898Z,17.86
2018-01-27T23:27:29.333Z,17.85
2018-01-27T23:29:55.761Z,17.85
2018-01-27T23:32:21.950Z,17.85
2018-01-27T23:34:48.167Z,17.86
2018-01-27T23:37:14.386Z,17.85
2018-01-27T23:39:40.606Z,17.80
2018-01-27T23:42:07.189Z,17.81
2018-01-27T23:44:33.753Z,17.81
2018-01-27T23:46:59.945Z,17.82
2018-01-27T23:49:26.452Z,17.82
2018-01-27T23:51:52.658Z,17.82
2018-01-27T23:54:18.824Z,17.80
2018-01-27T23:56:45.076Z,17.82
2018-01-27T23:59:11.271Z,17.82
